createdAt,value
2022-10-22T00:01:45.833Z,7.57
2022-10-22T00:04:14.403Z,7.51
2022-10-22T00:06:44.970Z,7.46
2022-10-22T00:09:14.321Z,7.42
2022-10-22T00:11:42.787Z,7.39
2022-10-22T00:14:12.001Z,7.36
2022-10-22T00:16:39.987Z,7.33
2022-10-22T00:19:09.364Z,7.31
2022-10-22T00:21:37.582Z,7.28
2022-10-22T00:24:05.831Z,7.26
2022-10-22T00:26:33.943Z,7.25
2022-10-22T00:29:02.080Z,7.24
2022-10-22T00:31:30.038Z,7.22
2022-10-22T00:33:58.090Z,7.21
2022-10-22T00:46:43.096Z,7.09
2022-10-22T00:49:17.120Z,7.05
2022-10-22T00:51:45.380Z,7.02
2022-10-22T00:54:13.493Z,6.99
2022-10-22T00:56:41.528Z,6.97
2022-10-22T00:59:10.557Z,6.95
2022-10-22T01:01:38.519Z,6.94
2022-10-22T01:04:06.438Z,6.93
2022-10-22T01:06:34.502Z,6.92
2022-10-22T01:09:27.035Z,6.90
2022-10-22T01:12:16.306Z,6.89
2022-10-22T01:15:03.746Z,6.87
2022-10-22T01:17:46.888Z,6.86
2022-10-22T01:21:00.373Z,6.84
2022-10-22T01:23:56.248Z,6.83
2022-10-22T01:26:55.355Z,6.81
2022-10-22T01:29:32.624Z,6.80
2022-10-22T01:32:11.081Z,6.80
2022-10-22T01:34:47.757Z,6.80
2022-10-22T01:37:33.074Z,6.82
2022-10-22T01:40:02.444Z,6.86
2022-10-22T01:42:30.485Z,6.89
2022-10-22T01:44:58.716Z,6.94
2022-10-22T01:48:13.976Z,6.98
2022-10-22T01:50:56.298Z,7.04
2022-10-22T01:58:32.470Z,7.16
2022-10-22T02:02:30.609Z,7.23
2022-10-22T02:05:04.982Z,7.28
2022-10-22T02:07:38.228Z,7.31
2022-10-22T02:10:08.854Z,7.33
2022-10-22T02:12:39.338Z,7.33
2022-10-22T02:15:09.877Z,7.36
2022-10-22T02:17:48.456Z,7.38
2022-10-22T02:20:25.172Z,7.39
2022-10-22T02:22:54.152Z,7.35
2022-10-22T02:25:25.063Z,7.26
2022-10-22T02:28:25.548Z,7.17
2022-10-22T02:31:04.520Z,7.12
2022-10-22T02:33:39.136Z,7.08
2022-10-22T02:36:08.482Z,7.02
2022-10-22T02:38:39.508Z,6.98
2022-10-22T02:41:07.778Z,6.95
2022-10-22T02:43:41.875Z,6.92
2022-10-22T02:46:11.511Z,6.89
2022-10-22T02:48:39.493Z,6.82
2022-10-22T02:51:07.624Z,6.79
2022-10-22T02:53:35.588Z,6.76
2022-10-22T02:56:04.257Z,6.71
2022-10-22T02:58:35.874Z,6.68
2022-10-22T03:01:05.982Z,6.65
2022-10-22T03:03:34.137Z,6.60
2022-10-22T03:06:02.424Z,6.56
2022-10-22T03:08:30.439Z,6.52
2022-10-22T03:10:58.556Z,6.45
2022-10-22T03:13:26.637Z,6.41
2022-10-22T03:15:54.477Z,6.37
2022-10-22T03:18:22.407Z,6.35
2022-10-22T03:20:50.283Z,6.33
2022-10-22T03:23:20.303Z,6.29
2022-10-22T03:25:49.797Z,6.26
2022-10-22T03:28:18.760Z,6.23
2022-10-22T03:30:46.698Z,6.22
2022-10-22T03:33:14.681Z,6.18
2022-10-22T03:35:46.896Z,6.16
2022-10-22T03:38:15.308Z,6.14
2022-10-22T03:40:46.036Z,6.11
2022-10-22T03:43:14.206Z,6.09
2022-10-22T03:45:42.044Z,6.07
2022-10-22T03:48:09.890Z,6.04
2022-10-22T03:50:37.760Z,6.01
2022-10-22T03:53:07.229Z,5.99
2022-10-22T03:55:35.098Z,5.97
2022-10-22T03:58:02.994Z,5.96
2022-10-22T04:00:30.971Z,5.95
2022-10-22T04:02:58.877Z,5.92
2022-10-22T04:05:27.076Z,5.91
2022-10-22T04:07:55.200Z,5.92
2022-10-22T04:10:23.208Z,5.93
2022-10-22T04:12:51.450Z,5.94
2022-10-22T04:15:31.423Z,5.96
2022-10-22T04:18:01.374Z,5.98
2022-10-22T04:20:29.406Z,5.99
2022-10-22T04:22:58.252Z,5.98
2022-10-22T04:25:30.570Z,5.99
2022-10-22T04:27:58.437Z,6.02
2022-10-22T04:30:26.439Z,6.07
2022-10-22T04:32:54.389Z,6.11
2022-10-22T04:35:22.599Z,6.15
2022-10-22T04:37:50.673Z,6.20
2022-10-22T04:40:18.633Z,6.24
2022-10-22T04:42:46.453Z,6.26
2022-10-22T04:45:15.783Z,6.30
2022-10-22T04:47:43.879Z,6.33
2022-10-22T04:50:12.255Z,6.36
2022-10-22T04:52:40.276Z,6.38
2022-10-22T04:55:08.482Z,6.38
2022-10-22T04:57:36.483Z,6.38
2022-10-22T05:00:05.024Z,6.38
2022-10-22T05:02:32.896Z,6.37
2022-10-22T05:05:00.784Z,6.34
2022-10-22T05:07:28.706Z,6.31
2022-10-22T05:09:56.554Z,6.29
2022-10-22T05:12:24.481Z,6.28
2022-10-22T05:14:52.482Z,6.26
2022-10-22T05:17:20.276Z,6.26
2022-10-22T05:19:48.126Z,6.24
2022-10-22T05:22:15.933Z,6.22
2022-10-22T05:24:44.367Z,6.22
2022-10-22T05:27:12.421Z,6.22
2022-10-22T05:29:40.554Z,6.21
2022-10-22T05:32:08.563Z,6.20
2022-10-22T05:34:36.497Z,6.19
2022-10-22T05:37:04.348Z,6.19
2022-10-22T05:39:36.910Z,6.20
2022-10-22T05:42:05.087Z,6.20
2022-10-22T05:44:32.955Z,6.20
2022-10-22T05:47:00.834Z,6.20
2022-10-22T05:49:28.983Z,6.22
2022-10-22T05:51:56.885Z,6.24
2022-10-22T05:54:24.680Z,6.24
2022-10-22T05:56:52.525Z,6.23
2022-10-22T05:59:20.597Z,6.24
2022-10-22T06:01:48.583Z,6.26
2022-10-22T06:04:17.981Z,6.33
2022-10-22T06:06:49.159Z,6.38
2022-10-22T06:09:24.956Z,6.45
2022-10-22T06:11:53.248Z,6.55
2022-10-22T06:14:22.020Z,6.62
2022-10-22T06:16:50.733Z,6.69
2022-10-22T06:19:21.233Z,6.77
2022-10-22T06:21:49.500Z,6.85
2022-10-22T06:24:17.504Z,6.94
2022-10-22T06:26:49.962Z,7.03
2022-10-22T06:29:18.220Z,7.14
2022-10-22T06:31:46.108Z,7.24
2022-10-22T06:34:15.244Z,7.32
2022-10-22T06:36:45.011Z,7.41
2022-10-22T06:39:16.396Z,7.52
2022-10-22T06:41:44.270Z,7.62
2022-10-22T06:44:15.734Z,7.69
2022-10-22T06:46:43.984Z,7.76
2022-10-22T06:49:17.214Z,7.85
2022-10-22T06:51:45.768Z,7.94
2022-10-22T06:54:13.712Z,8.04
2022-10-22T06:56:42.266Z,8.13
2022-10-22T06:59:10.128Z,8.21
2022-10-22T07:01:38.443Z,8.25
2022-10-22T07:04:07.001Z,8.27
2022-10-22T07:06:34.927Z,8.28
2022-10-22T07:09:03.096Z,8.30
2022-10-22T07:11:39.085Z,8.35
2022-10-22T07:14:07.783Z,8.46
2022-10-22T07:16:35.768Z,8.56
2022-10-22T07:19:05.696Z,8.65
2022-10-22T07:21:34.509Z,8.74
2022-10-22T07:24:02.437Z,8.83
2022-10-22T07:26:32.602Z,8.86
2022-10-22T07:29:01.548Z,8.83
2022-10-22T07:31:30.131Z,8.87
2022-10-22T07:33:58.921Z,8.96
2022-10-22T07:36:26.952Z,9.06
2022-10-22T07:38:57.816Z,9.18
2022-10-22T07:41:27.634Z,9.30
2022-10-22T07:43:56.991Z,9.42
2022-10-22T07:46:26.436Z,9.52
2022-10-22T07:48:54.735Z,9.62
2022-10-22T07:51:23.821Z,9.70
2022-10-22T07:53:51.790Z,9.82
2022-10-22T07:56:19.649Z,9.92
2022-10-22T07:58:47.539Z,10.00
2022-10-22T08:01:15.554Z,10.09
2022-10-22T08:03:44.510Z,10.18
2022-10-22T08:06:15.634Z,10.31
2022-10-22T08:08:45.843Z,10.42
2022-10-22T08:11:14.063Z,10.54
2022-10-22T08:13:45.325Z,10.60
2022-10-22T08:16:15.169Z,10.72
2022-10-22T08:18:43.243Z,10.86
2022-10-22T08:21:13.190Z,11.02
2022-10-22T08:23:41.248Z,11.21
2022-10-22T08:26:10.363Z,11.34
2022-10-22T08:28:39.029Z,11.44
2022-10-22T08:31:18.110Z,11.60
2022-10-22T08:33:46.367Z,11.72
2022-10-22T08:36:14.491Z,11.82
2022-10-22T08:38:42.468Z,11.91
2022-10-22T08:41:14.508Z,11.97
2022-10-22T08:44:00.576Z,12.02
2022-10-22T08:46:37.823Z,12.05
2022-10-22T08:49:13.030Z,12.07
2022-10-22T08:51:41.028Z,12.09
2022-10-22T08:54:24.049Z,12.13
2022-10-22T08:57:09.861Z,12.20
2022-10-22T08:59:51.577Z,12.32
2022-10-22T09:02:41.616Z,12.46
2022-10-22T09:05:28.388Z,12.58
2022-10-22T09:07:57.353Z,12.65
2022-10-22T09:10:29.414Z,12.76
2022-10-22T09:12:57.654Z,12.88
2022-10-22T09:15:25.567Z,12.93
2022-10-22T09:18:06.058Z,12.92
2022-10-22T09:21:02.776Z,12.88
2022-10-22T09:23:40.155Z,12.91
2022-10-22T09:26:15.898Z,12.92
2022-10-22T09:28:44.125Z,12.99
2022-10-22T09:31:14.302Z,13.00
2022-10-22T09:33:44.821Z,12.98
2022-10-22T09:36:18.816Z,13.08
2022-10-22T09:38:49.853Z,13.18
2022-10-22T09:41:19.810Z,13.30
2022-10-22T09:43:48.323Z,13.43
2022-10-22T09:46:21.438Z,13.54
2022-10-22T09:49:06.716Z,13.68
2022-10-22T09:51:58.022Z,13.83
2022-10-22T09:54:39.296Z,13.93
2022-10-22T09:57:20.188Z,14.00
2022-10-22T09:59:52.545Z,14.17
2022-10-22T10:02:37.489Z,14.34
2022-10-22T10:05:07.350Z,14.52
2022-10-22T10:07:37.176Z,14.69
2022-10-22T10:10:19.589Z,14.82
2022-10-22T10:13:03.497Z,14.90
2022-10-22T10:15:46.357Z,14.94
2022-10-22T10:18:33.376Z,14.96
2022-10-22T10:21:19.990Z,15.00
2022-10-22T10:24:03.050Z,14.95
2022-10-22T10:26:41.164Z,14.84
2022-10-22T10:32:53.076Z,15.10
2022-10-22T10:35:28.350Z,15.31
2022-10-22T10:38:02.729Z,15.52
2022-10-22T10:40:48.843Z,15.70
2022-10-22T10:44:04.302Z,15.85
2022-10-22T10:46:57.439Z,16.04
2022-10-22T10:49:28.227Z,16.26
2022-10-22T10:52:33.864Z,16.43
2022-10-22T10:55:23.648Z,16.54
2022-10-22T10:58:00.851Z,16.58
2022-10-22T11:00:37.320Z,16.57
2022-10-22T11:03:11.395Z,16.56
2022-10-22T11:05:46.008Z,16.58
2022-10-22T11:08:23.819Z,16.68
2022-10-22T11:10:51.621Z,16.80
2022-10-22T11:13:44.060Z,16.86
2022-10-22T11:16:20.911Z,16.96
2022-10-22T11:18:58.218Z,17.03
2022-10-22T11:21:41.540Z,17.07
2022-10-22T11:24:30.576Z,17.09
2022-10-22T11:27:07.107Z,17.11
2022-10-22T11:29:40.986Z,17.16
2022-10-22T11:32:17.579Z,17.31
2022-10-22T11:34:47.332Z,17.39
2022-10-22T11:37:16.785Z,17.43
2022-10-22T11:39:55.395Z,17.54
2022-10-22T11:50:57.450Z,17.75
2022-10-22T11:53:39.109Z,17.78
2022-10-22T11:56:07.300Z,17.87
2022-10-22T11:58:45.077Z,17.94
2022-10-22T12:01:26.776Z,17.96
2022-10-22T12:03:57.869Z,17.79
2022-10-22T12:06:27.945Z,17.62
2022-10-22T12:09:04.859Z,17.49
2022-10-22T12:11:49.976Z,17.38
2022-10-22T12:14:31.780Z,17.34
2022-10-22T12:17:08.363Z,17.34
2022-10-22T12:19:39.820Z,17.30
2022-10-22T12:22:07.750Z,17.25
2022-10-22T12:24:40.553Z,17.20
2022-10-22T12:27:22.600Z,17.13
2022-10-22T12:29:59.113Z,17.06
2022-10-22T12:32:36.016Z,17.04
2022-10-22T12:35:17.434Z,17.03
2022-10-22T12:37:45.615Z,16.99
2022-10-22T12:40:18.269Z,16.93
2022-10-22T12:43:11.648Z,16.87
2022-10-22T12:45:40.810Z,16.82
2022-10-22T12:48:16.997Z,16.75
2022-10-22T12:50:54.559Z,16.66
2022-10-22T12:53:35.323Z,16.61
2022-10-22T12:56:11.978Z,16.61
2022-10-22T12:58:45.529Z,16.59
2022-10-22T13:01:16.364Z,16.56
2022-10-22T13:03:49.831Z,16.53
2022-10-22T13:06:20.631Z,16.50
2022-10-22T13:09:00.810Z,16.49
2022-10-22T13:11:49.395Z,16.48
2022-10-22T13:14:35.245Z,16.43
2022-10-22T13:17:13.362Z,16.38
2022-10-22T13:19:45.801Z,16.33
2022-10-22T13:22:37.077Z,16.30
2022-10-22T13:25:04.968Z,16.25
2022-10-22T13:27:33.087Z,16.22
2022-10-22T13:30:09.489Z,16.16
2022-10-22T13:32:37.332Z,16.12
2022-10-22T13:35:05.904Z,16.08
2022-10-22T13:37:35.675Z,16.05
2022-10-22T13:40:12.554Z,16.02
2022-10-22T13:42:40.817Z,15.99
2022-10-22T13:45:08.920Z,15.97
2022-10-22T13:47:41.180Z,15.95
2022-10-22T13:50:18.063Z,15.93
2022-10-22T13:52:58.008Z,15.91
2022-10-22T13:55:30.688Z,15.89
2022-10-22T13:58:07.169Z,15.89
2022-10-22T14:00:35.436Z,15.87
2022-10-22T14:03:03.774Z,15.83
2022-10-22T14:05:32.687Z,15.80
2022-10-22T14:08:01.589Z,15.75
2022-10-22T14:10:29.421Z,15.72
2022-10-22T14:12:58.603Z,15.69
2022-10-22T14:15:29.486Z,15.66
2022-10-22T14:17:59.909Z,15.63
2022-10-22T14:20:33.802Z,15.59
2022-10-22T14:23:23.876Z,15.56
2022-10-22T14:25:52.535Z,15.54
2022-10-22T14:28:20.526Z,15.53
2022-10-22T14:30:49.746Z,15.52
2022-10-22T14:33:31.533Z,15.51
2022-10-22T14:36:01.192Z,15.45
2022-10-22T14:38:29.789Z,15.39
2022-10-22T14:40:59.827Z,15.35
2022-10-22T14:43:31.130Z,15.32
2022-10-22T14:45:59.227Z,15.29
2022-10-22T14:48:27.020Z,15.27
2022-10-22T14:50:55.045Z,15.24
2022-10-22T14:53:22.960Z,15.22
2022-10-22T14:55:51.672Z,15.21
2022-10-22T14:58:19.630Z,15.17
2022-10-22T15:00:47.550Z,15.14
2022-10-22T15:03:15.399Z,15.11
2022-10-22T15:05:44.937Z,15.08
2022-10-22T15:08:14.660Z,15.07
2022-10-22T15:10:42.657Z,15.04
2022-10-22T15:13:10.628Z,14.99
2022-10-22T15:15:41.760Z,14.93
2022-10-22T15:18:09.658Z,14.91
2022-10-22T15:20:37.486Z,14.90
2022-10-22T15:23:05.429Z,14.87
2022-10-22T15:25:33.289Z,14.83
2022-10-22T15:28:09.068Z,14.82
2022-10-22T15:30:38.012Z,14.79
2022-10-22T15:33:06.531Z,14.76
2022-10-22T15:35:34.705Z,14.75
2022-10-22T15:38:02.723Z,14.72
2022-10-22T15:40:30.642Z,14.72
2022-10-22T15:42:58.589Z,14.69
2022-10-22T15:45:26.781Z,14.68
2022-10-22T15:47:54.847Z,14.70
2022-10-22T15:50:22.854Z,14.72
2022-10-22T15:52:50.810Z,14.74
2022-10-22T15:55:18.917Z,14.76
2022-10-22T15:57:47.249Z,14.77
2022-10-22T16:00:16.027Z,14.77
2022-10-22T16:02:44.535Z,14.76
2022-10-22T16:05:12.522Z,14.74
2022-10-22T16:07:40.721Z,14.73
2022-10-22T16:10:12.803Z,14.71
2022-10-22T16:12:41.583Z,14.66
2022-10-22T16:15:10.326Z,14.61
2022-10-22T16:17:38.286Z,14.60
2022-10-22T16:20:06.731Z,14.57
2022-10-22T16:22:34.649Z,14.55
2022-10-22T16:25:02.726Z,14.52
2022-10-22T16:27:30.572Z,14.49
2022-10-22T16:29:58.473Z,14.45
2022-10-22T16:32:26.457Z,14.41
2022-10-22T16:34:54.426Z,14.39
2022-10-22T16:37:22.360Z,14.38
2022-10-22T16:39:50.257Z,14.35
2022-10-22T16:42:18.165Z,14.35
2022-10-22T16:44:46.021Z,14.35
2022-10-22T16:47:13.933Z,14.37
2022-10-22T16:49:41.807Z,14.38
2022-10-22T16:52:09.680Z,14.39
2022-10-22T16:54:37.589Z,14.40
2022-10-22T16:57:05.474Z,14.39
2022-10-22T16:59:33.450Z,14.38
2022-10-22T17:02:01.725Z,14.37
2022-10-22T17:04:29.675Z,14.36
2022-10-22T17:06:57.668Z,14.34
2022-10-22T17:09:25.514Z,14.32
2022-10-22T17:11:53.487Z,14.31
2022-10-22T17:14:21.680Z,14.29
2022-10-22T17:16:53.763Z,14.26
2022-10-22T17:19:22.818Z,14.24
2022-10-22T17:21:51.548Z,14.21
2022-10-22T17:24:20.435Z,14.18
2022-10-22T17:26:48.462Z,14.16
2022-10-22T17:29:16.888Z,14.15
2022-10-22T17:31:44.719Z,14.14
2022-10-22T17:34:16.700Z,14.13
2022-10-22T17:36:44.728Z,14.11
2022-10-22T17:39:17.691Z,14.10
2022-10-22T17:41:45.995Z,14.09
2022-10-22T17:44:17.162Z,14.08
2022-10-22T17:46:45.442Z,14.07
2022-10-22T17:49:17.876Z,14.07
2022-10-22T17:51:46.833Z,14.08
2022-10-22T17:54:14.910Z,14.10
2022-10-22T17:56:43.386Z,14.11
2022-10-22T17:59:14.049Z,14.13
2022-10-22T18:01:45.720Z,14.13
2022-10-22T18:04:16.631Z,14.17
2022-10-22T18:06:46.795Z,14.21
2022-10-22T18:09:18.647Z,14.23
2022-10-22T18:11:48.822Z,14.26
2022-10-22T18:14:19.334Z,14.33
2022-10-22T18:16:48.123Z,14.39
2022-10-22T18:19:19.248Z,14.46
2022-10-22T18:21:47.201Z,14.49
2022-10-22T18:24:16.746Z,14.48
2022-10-22T18:26:45.403Z,14.43
2022-10-22T18:29:18.100Z,14.41
2022-10-22T18:31:46.865Z,14.37
2022-10-22T18:34:17.629Z,14.35
2022-10-22T18:36:48.278Z,14.35
2022-10-22T18:39:17.605Z,14.34
2022-10-22T18:41:45.500Z,14.30
2022-10-22T18:44:15.640Z,14.25
2022-10-22T18:46:45.078Z,14.18
2022-10-22T18:49:20.622Z,14.14
2022-10-22T18:51:52.642Z,14.11
2022-10-22T18:54:24.456Z,14.07
2022-10-22T18:56:55.620Z,14.04
2022-10-22T18:59:27.350Z,13.99
2022-10-22T19:02:00.666Z,13.97
2022-10-22T19:04:37.029Z,13.96
2022-10-22T19:09:36.037Z,13.93
2022-10-22T19:12:16.454Z,13.94
2022-10-22T19:14:45.354Z,13.92
2022-10-22T19:17:13.475Z,13.90
2022-10-22T19:19:41.901Z,13.87
2022-10-22T19:22:10.416Z,13.85
2022-10-22T19:24:38.908Z,13.81
2022-10-22T19:27:08.648Z,13.78
2022-10-22T19:29:36.968Z,13.74
2022-10-22T19:32:05.106Z,13.68
2022-10-22T19:34:33.533Z,13.62
2022-10-22T19:37:01.654Z,13.58
2022-10-22T19:39:29.767Z,13.53
2022-10-22T19:41:59.060Z,13.48
2022-10-22T19:44:27.974Z,13.42
2022-10-22T19:46:57.449Z,13.38
2022-10-22T19:49:25.752Z,13.35
2022-10-22T19:51:53.813Z,13.33
2022-10-22T19:55:19.717Z,13.29
2022-10-22T19:58:01.801Z,13.26
2022-10-22T20:00:32.211Z,13.21
2022-10-22T20:03:00.221Z,13.15
2022-10-22T20:05:28.979Z,13.11
2022-10-22T20:07:57.300Z,13.12
2022-10-22T20:10:25.461Z,13.13
2022-10-22T20:12:53.389Z,13.14
2022-10-22T20:15:22.126Z,13.17
2022-10-22T20:17:52.585Z,13.21
2022-10-22T20:20:23.069Z,13.26
2022-10-22T20:22:54.707Z,13.30
2022-10-22T20:25:22.635Z,13.34
2022-10-22T20:27:50.542Z,13.38
2022-10-22T20:30:20.190Z,13.41
2022-10-22T20:32:49.166Z,13.44
2022-10-22T20:35:17.439Z,13.47
2022-10-22T20:37:46.101Z,13.47
2022-10-22T20:40:14.651Z,13.49
2022-10-22T20:42:45.097Z,13.51
2022-10-22T20:45:14.107Z,13.54
2022-10-22T20:47:51.247Z,13.57
2022-10-22T20:50:21.345Z,13.58
2022-10-22T20:52:49.408Z,13.58
2022-10-22T20:55:17.418Z,13.58
2022-10-22T20:57:45.451Z,13.58
2022-10-22T21:00:14.893Z,13.57
2022-10-22T21:02:46.817Z,13.55
2022-10-22T21:05:14.951Z,13.53
2022-10-22T21:07:43.236Z,13.50
2022-10-22T21:10:11.474Z,13.46
2022-10-22T21:12:42.111Z,13.40
2022-10-22T21:15:12.642Z,13.36
2022-10-22T21:17:40.916Z,13.32
2022-10-22T21:22:36.896Z,13.26
2022-10-22T21:25:05.183Z,13.23
2022-10-22T21:27:33.863Z,13.20
2022-10-22T21:30:02.403Z,13.15
2022-10-22T21:32:31.218Z,13.09
2022-10-22T21:34:59.363Z,13.02
2022-10-22T21:37:30.274Z,12.95
2022-10-22T21:39:58.680Z,12.89
2022-10-22T21:42:26.930Z,12.85
2022-10-22T21:44:55.177Z,12.82
2022-10-22T21:47:23.082Z,12.80
2022-10-22T21:49:51.320Z,12.79
2022-10-22T21:52:19.431Z,12.77
2022-10-22T21:54:47.475Z,12.75
2022-10-22T21:57:15.343Z,12.75
2022-10-22T21:59:43.323Z,12.77
2022-10-22T22:02:11.351Z,12.78
2022-10-22T22:04:40.035Z,12.80
2022-10-22T22:07:08.105Z,12.81
2022-10-22T22:09:36.114Z,12.83
2022-10-22T22:12:04.276Z,12.88
2022-10-22T22:14:32.822Z,12.90
2022-10-22T22:17:00.741Z,12.94
2022-10-22T22:19:35.766Z,12.97
2022-10-22T22:22:04.845Z,12.99
2022-10-22T22:24:32.986Z,13.01
2022-10-22T22:27:01.136Z,13.03
2022-10-22T22:29:29.068Z,13.07
2022-10-22T22:31:56.976Z,13.13
2022-10-22T22:34:25.128Z,13.15
2022-10-22T22:36:53.240Z,13.13
2022-10-22T22:39:25.739Z,13.15
2022-10-22T22:41:53.611Z,13.11
2022-10-22T22:44:21.517Z,13.10
2022-10-22T22:46:49.661Z,13.13
2022-10-22T22:49:17.669Z,13.11
2022-10-22T22:51:45.568Z,13.09
2022-10-22T22:54:13.409Z,13.07
2022-10-22T22:56:41.572Z,13.04
2022-10-22T22:59:11.429Z,13.02
2022-10-22T23:01:40.087Z,12.96
2022-10-22T23:04:13.118Z,12.91
2022-10-22T23:06:41.083Z,12.85
2022-10-22T23:09:11.688Z,12.78
2022-10-22T23:11:41.393Z,12.71
2022-10-22T23:14:12.525Z,12.64
2022-10-22T23:16:45.522Z,12.58
2022-10-22T23:19:16.901Z,12.49
2022-10-22T23:21:48.981Z,12.43
2022-10-22T23:24:19.402Z,12.38
2022-10-22T23:26:51.126Z,12.31
2022-10-22T23:29:21.986Z,12.25
2022-10-22T23:31:51.243Z,12.23
2022-10-22T23:34:21.995Z,12.21
2022-10-22T23:36:51.372Z,12.18
2022-10-22T23:39:23.101Z,12.16
2022-10-22T23:41:53.147Z,12.16
2022-10-22T23:44:22.143Z,12.13
2022-10-22T23:46:50.494Z,12.13
2022-10-22T23:49:18.489Z,12.14
2022-10-22T23:51:46.453Z,12.14
2022-10-22T23:54:18.629Z,12.15
2022-10-22T23:56:47.062Z,12.16
2022-10-22T23:59:15.708Z,12.17
